sensor_id;sensor_type;location;lat;lon;timestamp;temperature;humidity
22827;DHT22;11580;52.562;13.418;2024-01-06T00:01:26;7.10;34.00
22827;DHT22;11580;52.562;13.418;2024-01-06T00:03:53;7.10;33.80
22827;DHT22;11580;52.562;13.418;2024-01-06T00:06:20;7.10;33.90
22827;DHT22;11580;52.562;13.418;2024-01-06T00:08:47;7.10;33.90
22827;DHT22;11580;52.562;13.418;2024-01-06T00:11:19;7.10;33.90
22827;DHT22;11580;52.562;13.418;2024-01-06T00:13:46;7.10;33.80
22827;DHT22;11580;52.562;13.418;2024-01-06T00:16:16;7.10;33.80
22827;DHT22;11580;52.562;13.418;2024-01-06T00:18:45;7.10;33.40
22827;DHT22;11580;52.562;13.418;2024-01-06T00:21:12;7.10;33.60
22827;DHT22;11580;52.562;13.418;2024-01-06T00:23:40;7.00;33.70
22827;DHT22;11580;52.562;13.418;2024-01-06T00:26:09;7.00;33.80
22827;DHT22;11580;52.562;13.418;2024-01-06T00:28:38;7.00;33.70
22827;DHT22;11580;52.562;13.418;2024-01-06T00:31:06;7.00;34.30
22827;DHT22;11580;52.562;13.418;2024-01-06T00:33:32;7.00;33.60
22827;DHT22;11580;52.562;13.418;2024-01-06T00:36:00;7.00;33.60
22827;DHT22;11580;52.562;13.418;2024-01-06T00:38:27;7.00;33.50
22827;DHT22;11580;52.562;13.418;2024-01-06T00:40:55;7.00;33.60
22827;DHT22;11580;52.562;13.418;2024-01-06T00:43:22;7.00;33.60
22827;DHT22;11580;52.562;13.418;2024-01-06T00:45:49;6.90;33.40
22827;DHT22;11580;52.562;13.418;2024-01-06T00:48:16;6.90;33.40
22827;DHT22;11580;52.562;13.418;2024-01-06T00:50:44;6.90;33.30
22827;DHT22;11580;52.562;13.418;2024-01-06T00:53:13;6.90;33.30
22827;DHT22;11580;52.562;13.418;2024-01-06T00:55:41;6.90;33.30
22827;DHT22;11580;52.562;13.418;2024-01-06T00:58:08;6.80;33.50
22827;DHT22;11580;52.562;13.418;2024-01-06T01:00:35;6.80;33.50
22827;DHT22;11580;52.562;13.418;2024-01-06T01:03:02;6.80;33.50
22827;DHT22;11580;52.562;13.418;2024-01-06T01:05:29;6.80;33.50
22827;DHT22;11580;52.562;13.418;2024-01-06T01:07:57;6.80;33.50
22827;DHT22;11580;52.562;13.418;2024-01-06T01:10:25;6.80;33.50
22827;DHT22;11580;52.562;13.418;2024-01-06T01:12:52;6.80;33.40
22827;DHT22;11580;52.562;13.418;2024-01-06T01:15:20;6.70;33.40
22827;DHT22;11580;52.562;13.418;2024-01-06T01:17:47;6.70;33.50
22827;DHT22;11580;52.562;13.418;2024-01-06T01:20:14;6.80;33.60
22827;DHT22;11580;52.562;13.418;2024-01-06T01:22:41;6.70;33.60
22827;DHT22;11580;52.562;13.418;2024-01-06T01:25:08;6.70;33.70
22827;DHT22;11580;52.562;13.418;2024-01-06T01:27:39;6.80;33.80
22827;DHT22;11580;52.562;13.418;2024-01-06T01:30:07;6.70;33.60
22827;DHT22;11580;52.562;13.418;2024-01-06T01:32:35;6.80;33.80
22827;DHT22;11580;52.562;13.418;2024-01-06T01:35:02;6.70;33.70
22827;DHT22;11580;52.562;13.418;2024-01-06T01:37:29;6.80;34.50
22827;DHT22;11580;52.562;13.418;2024-01-06T01:39:57;6.80;33.80
22827;DHT22;11580;52.562;13.418;2024-01-06T01:42:24;6.80;33.60
22827;DHT22;11580;52.562;13.418;2024-01-06T01:44:52;6.80;33.60
22827;DHT22;11580;52.562;13.418;2024-01-06T01:47:20;6.80;33.30
22827;DHT22;11580;52.562;13.418;2024-01-06T01:49:47;6.80;33.40
22827;DHT22;11580;52.562;13.418;2024-01-06T01:52:15;6.80;33.50
22827;DHT22;11580;52.562;13.418;2024-01-06T01:54:43;6.70;33.30
22827;DHT22;11580;52.562;13.418;2024-01-06T01:57:13;6.70;33.40
22827;DHT22;11580;52.562;13.418;2024-01-06T01:59:42;6.70;33.30
22827;DHT22;11580;52.562;13.418;2024-01-06T02:02:11;6.80;33.30
22827;DHT22;11580;52.562;13.418;2024-01-06T02:04:47;6.70;33.10
22827;DHT22;11580;52.562;13.418;2024-01-06T02:07:14;6.70;33.30
22827;DHT22;11580;52.562;13.418;2024-01-06T02:09:41;6.70;33.60
22827;DHT22;11580;52.562;13.418;2024-01-06T02:12:09;6.70;33.60
22827;DHT22;11580;52.562;13.418;2024-01-06T02:14:36;6.70;33.50
22827;DHT22;11580;52.562;13.418;2024-01-06T02:17:03;6.70;33.40
22827;DHT22;11580;52.562;13.418;2024-01-06T02:19:32;6.70;33.30
22827;DHT22;11580;52.562;13.418;2024-01-06T02:22:00;6.70;34.00
22827;DHT22;11580;52.562;13.418;2024-01-06T02:24:27;6.70;33.30
22827;DHT22;11580;52.562;13.418;2024-01-06T02:26:55;6.70;33.40
22827;DHT22;11580;52.562;13.418;2024-01-06T02:29:22;6.60;33.40
22827;DHT22;11580;52.562;13.418;2024-01-06T02:31:49;6.60;34.10
22827;DHT22;11580;52.562;13.418;2024-01-06T02:34:16;6.70;33.50
22827;DHT22;11580;52.562;13.418;2024-01-06T02:36:43;6.60;33.40
22827;DHT22;11580;52.562;13.418;2024-01-06T02:39:12;6.60;33.40
22827;DHT22;11580;52.562;13.418;2024-01-06T02:41:39;6.60;33.30
22827;DHT22;11580;52.562;13.418;2024-01-06T02:44:06;6.60;34.10
22827;DHT22;11580;52.562;13.418;2024-01-06T02:46:34;6.60;33.40
22827;DHT22;11580;52.562;13.418;2024-01-06T02:49:01;6.60;33.50
22827;DHT22;11580;52.562;13.418;2024-01-06T02:51:28;6.60;33.60
22827;DHT22;11580;52.562;13.418;2024-01-06T02:53:55;6.60;33.70
22827;DHT22;11580;52.562;13.418;2024-01-06T02:56:24;6.60;33.60
22827;DHT22;11580;52.562;13.418;2024-01-06T02:58:51;6.60;33.50
22827;DHT22;11580;52.562;13.418;2024-01-06T03:01:18;6.70;33.60
22827;DHT22;11580;52.562;13.418;2024-01-06T03:03:45;6.70;33.60
22827;DHT22;11580;52.562;13.418;2024-01-06T03:06:13;6.70;33.60
22827;DHT22;11580;52.562;13.418;2024-01-06T03:08:40;6.70;33.60
22827;DHT22;11580;52.562;13.418;2024-01-06T03:11:07;6.70;33.70
22827;DHT22;11580;52.562;13.418;2024-01-06T03:13:36;6.70;33.70
22827;DHT22;11580;52.562;13.418;2024-01-06T03:16:04;6.70;33.50
22827;DHT22;11580;52.562;13.418;2024-01-06T03:18:31;6.70;33.70
22827;DHT22;11580;52.562;13.418;2024-01-06T03:20:59;6.70;33.60
22827;DHT22;11580;52.562;13.418;2024-01-06T03:23:26;6.80;33.50
22827;DHT22;11580;52.562;13.418;2024-01-06T03:25:53;6.70;33.50
22827;DHT22;11580;52.562;13.418;2024-01-06T03:28:20;6.70;34.10
22827;DHT22;11580;52.562;13.418;2024-01-06T03:30:49;6.70;33.40
22827;DHT22;11580;52.562;13.418;2024-01-06T03:33:16;6.70;33.20
22827;DHT22;11580;52.562;13.418;2024-01-06T03:35:43;6.70;34.10
22827;DHT22;11580;52.562;13.418;2024-01-06T03:38:10;6.70;33.40
22827;DHT22;11580;52.562;13.418;2024-01-06T03:40:37;6.70;33.50
22827;DHT22;11580;52.562;13.418;2024-01-06T03:43:04;6.70;33.50
22827;DHT22;11580;52.562;13.418;2024-01-06T03:45:32;6.70;33.60
22827;DHT22;11580;52.562;13.418;2024-01-06T03:48:00;6.70;33.40
22827;DHT22;11580;52.562;13.418;2024-01-06T03:50:27;6.70;34.00
22827;DHT22;11580;52.562;13.418;2024-01-06T03:52:54;6.70;33.40
22827;DHT22;11580;52.562;13.418;2024-01-06T03:55:22;6.70;33.40
22827;DHT22;11580;52.562;13.418;2024-01-06T03:57:49;6.70;33.30
22827;DHT22;11580;52.562;13.418;2024-01-06T04:00:17;6.70;33.50
22827;DHT22;11580;52.562;13.418;2024-01-06T04:02:44;6.70;33.50
22827;DHT22;11580;52.562;13.418;2024-01-06T04:05:13;6.70;34.00
22827;DHT22;11580;52.562;13.418;2024-01-06T04:07:40;6.70;33.10
22827;DHT22;11580;52.562;13.418;2024-01-06T04:10:08;6.70;33.30
22827;DHT22;11580;52.562;13.418;2024-01-06T04:12:35;6.70;33.30
22827;DHT22;11580;52.562;13.418;2024-01-06T04:15:03;6.70;33.40
22827;DHT22;11580;52.562;13.418;2024-01-06T04:17:31;6.50;33.30
22827;DHT22;11580;52.562;13.418;2024-01-06T04:19:58;6.70;33.60
22827;DHT22;11580;52.562;13.418;2024-01-06T04:22:26;6.70;33.60
22827;DHT22;11580;52.562;13.418;2024-01-06T04:24:53;6.70;33.60
22827;DHT22;11580;52.562;13.418;2024-01-06T04:27:21;6.70;33.60
22827;DHT22;11580;52.562;13.418;2024-01-06T04:29:48;6.70;33.60
22827;DHT22;11580;52.562;13.418;2024-01-06T04:32:18;6.70;33.60
22827;DHT22;11580;52.562;13.418;2024-01-06T04:34:45;6.70;33.60
22827;DHT22;11580;52.562;13.418;2024-01-06T04:37:13;6.80;33.60
22827;DHT22;11580;52.562;13.418;2024-01-06T04:39:41;6.80;33.60
22827;DHT22;11580;52.562;13.418;2024-01-06T04:42:08;6.80;33.50
22827;DHT22;11580;52.562;13.418;2024-01-06T04:44:36;6.80;33.60
22827;DHT22;11580;52.562;13.418;2024-01-06T04:47:03;6.80;33.60
22827;DHT22;11580;52.562;13.418;2024-01-06T04:49:30;6.80;33.50
22827;DHT22;11580;52.562;13.418;2024-01-06T04:51:57;6.80;33.50
22827;DHT22;11580;52.562;13.418;2024-01-06T04:54:25;6.80;33.50
22827;DHT22;11580;52.562;13.418;2024-01-06T04:56:53;6.80;33.40
22827;DHT22;11580;52.562;13.418;2024-01-06T04:59:21;6.80;34.00
22827;DHT22;11580;52.562;13.418;2024-01-06T05:01:48;6.80;33.40
22827;DHT22;11580;52.562;13.418;2024-01-06T05:04:17;6.80;33.40
22827;DHT22;11580;52.562;13.418;2024-01-06T05:06:43;6.80;33.40
22827;DHT22;11580;52.562;13.418;2024-01-06T05:09:10;6.80;33.30
22827;DHT22;11580;52.562;13.418;2024-01-06T05:11:37;6.70;34.10
22827;DHT22;11580;52.562;13.418;2024-01-06T05:14:06;6.70;33.30
22827;DHT22;11580;52.562;13.418;2024-01-06T05:16:33;6.70;33.80
22827;DHT22;11580;52.562;13.418;2024-01-06T05:19:00;6.70;33.00
22827;DHT22;11580;52.562;13.418;2024-01-06T05:21:28;6.70;32.90
22827;DHT22;11580;52.562;13.418;2024-01-06T05:23:55;6.60;33.00
22827;DHT22;11580;52.562;13.418;2024-01-06T05:26:22;6.40;33.10
22827;DHT22;11580;52.562;13.418;2024-01-06T05:28:50;6.60;33.20
22827;DHT22;11580;52.562;13.418;2024-01-06T05:31:18;6.60;33.10
22827;DHT22;11580;52.562;13.418;2024-01-06T05:33:45;6.60;33.00
22827;DHT22;11580;52.562;13.418;2024-01-06T05:36:12;6.50;32.90
22827;DHT22;11580;52.562;13.418;2024-01-06T05:38:39;6.50;32.90
22827;DHT22;11580;52.562;13.418;2024-01-06T05:41:07;6.50;32.90
22827;DHT22;11580;52.562;13.418;2024-01-06T05:43:34;6.40;33.10
22827;DHT22;11580;52.562;13.418;2024-01-06T05:46:01;6.40;33.70
22827;DHT22;11580;52.562;13.418;2024-01-06T05:48:30;6.40;33.00
22827;DHT22;11580;52.562;13.418;2024-01-06T05:50:57;6.40;33.70
22827;DHT22;11580;52.562;13.418;2024-01-06T05:53:24;6.30;32.90
22827;DHT22;11580;52.562;13.418;2024-01-06T05:55:52;6.30;33.10
22827;DHT22;11580;52.562;13.418;2024-01-06T05:58:19;6.20;33.00
22827;DHT22;11580;52.562;13.418;2024-01-06T06:00:47;6.20;33.20
22827;DHT22;11580;52.562;13.418;2024-01-06T06:03:14;6.20;33.00
22827;DHT22;11580;52.562;13.418;2024-01-06T06:05:43;6.20;33.10
22827;DHT22;11580;52.562;13.418;2024-01-06T06:08:10;6.20;33.10
22827;DHT22;11580;52.562;13.418;2024-01-06T06:10:37;6.20;33.10
22827;DHT22;11580;52.562;13.418;2024-01-06T06:13:17;6.10;33.00
22827;DHT22;11580;52.562;13.418;2024-01-06T06:15:45;6.10;33.60
22827;DHT22;11580;52.562;13.418;2024-01-06T06:18:12;6.10;33.00
22827;DHT22;11580;52.562;13.418;2024-01-06T06:20:39;6.10;33.00
22827;DHT22;11580;52.562;13.418;2024-01-06T06:23:08;6.10;33.10
22827;DHT22;11580;52.562;13.418;2024-01-06T06:25:37;6.00;33.10
22827;DHT22;11580;52.562;13.418;2024-01-06T06:28:05;6.00;33.30
22827;DHT22;11580;52.562;13.418;2024-01-06T06:30:33;6.00;33.40
22827;DHT22;11580;52.562;13.418;2024-01-06T06:33:00;6.00;33.50
22827;DHT22;11580;52.562;13.418;2024-01-06T06:35:28;6.00;33.60
22827;DHT22;11580;52.562;13.418;2024-01-06T06:37:55;6.00;33.40
22827;DHT22;11580;52.562;13.418;2024-01-06T06:40:23;6.00;33.40
22827;DHT22;11580;52.562;13.418;2024-01-06T06:42:51;6.00;33.40
22827;DHT22;11580;52.562;13.418;2024-01-06T06:45:18;6.00;33.10
22827;DHT22;11580;52.562;13.418;2024-01-06T06:47:48;5.90;33.00
22827;DHT22;11580;52.562;13.418;2024-01-06T06:50:16;5.90;32.80
22827;DHT22;11580;52.562;13.418;2024-01-06T06:52:44;5.90;32.70
22827;DHT22;11580;52.562;13.418;2024-01-06T06:55:11;5.90;32.80
22827;DHT22;11580;52.562;13.418;2024-01-06T06:57:39;5.80;32.90
22827;DHT22;11580;52.562;13.418;2024-01-06T07:00:07;5.70;33.00
22827;DHT22;11580;52.562;13.418;2024-01-06T07:02:35;5.70;33.20
22827;DHT22;11580;52.562;13.418;2024-01-06T07:05:02;5.70;33.40
22827;DHT22;11580;52.562;13.418;2024-01-06T07:07:32;5.70;33.40
22827;DHT22;11580;52.562;13.418;2024-01-06T07:10:00;5.70;33.40
22827;DHT22;11580;52.562;13.418;2024-01-06T07:12:29;5.70;34.00
22827;DHT22;11580;52.562;13.418;2024-01-06T07:14:57;5.70;33.20
22827;DHT22;11580;52.562;13.418;2024-01-06T07:17:25;5.70;33.00
22827;DHT22;11580;52.562;13.418;2024-01-06T07:19:52;5.70;33.10
22827;DHT22;11580;52.562;13.418;2024-01-06T07:22:19;5.60;33.10
22827;DHT22;11580;52.562;13.418;2024-01-06T07:24:47;5.60;33.20
22827;DHT22;11580;52.562;13.418;2024-01-06T07:27:14;5.60;34.10
22827;DHT22;11580;52.562;13.418;2024-01-06T07:29:41;5.60;33.40
22827;DHT22;11580;52.562;13.418;2024-01-06T07:32:10;5.60;33.50
22827;DHT22;11580;52.562;13.418;2024-01-06T07:34:37;5.60;33.40
22827;DHT22;11580;52.562;13.418;2024-01-06T07:37:04;5.60;33.40
22827;DHT22;11580;52.562;13.418;2024-01-06T07:39:32;5.60;33.50
22827;DHT22;11580;52.562;13.418;2024-01-06T07:41:59;5.60;34.40
22827;DHT22;11580;52.562;13.418;2024-01-06T07:44:26;5.60;33.70
22827;DHT22;11580;52.562;13.418;2024-01-06T07:46:53;5.60;33.50
22827;DHT22;11580;52.562;13.418;2024-01-06T07:49:22;5.60;33.50
22827;DHT22;11580;52.562;13.418;2024-01-06T07:51:49;5.60;33.50
22827;DHT22;11580;52.562;13.418;2024-01-06T07:54:16;5.60;33.70
22827;DHT22;11580;52.562;13.418;2024-01-06T07:56:43;5.60;34.60
22827;DHT22;11580;52.562;13.418;2024-01-06T07:59:11;5.60;33.70
22827;DHT22;11580;52.562;13.418;2024-01-06T08:01:38;5.60;33.60
22827;DHT22;11580;52.562;13.418;2024-01-06T08:04:08;5.60;33.70
22827;DHT22;11580;52.562;13.418;2024-01-06T08:06:37;5.60;33.80
22827;DHT22;11580;52.562;13.418;2024-01-06T08:09:04;5.60;33.70
22827;DHT22;11580;52.562;13.418;2024-01-06T08:11:31;5.60;33.90
22827;DHT22;11580;52.562;13.418;2024-01-06T08:13:58;5.70;34.50
22827;DHT22;11580;52.562;13.418;2024-01-06T08:16:26;5.70;34.40
22827;DHT22;11580;52.562;13.418;2024-01-06T08:18:53;5.70;34.00
22827;DHT22;11580;52.562;13.418;2024-01-06T08:21:20;5.70;34.10
22827;DHT22;11580;52.562;13.418;2024-01-06T08:23:48;5.70;34.10
22827;DHT22;11580;52.562;13.418;2024-01-06T08:26:17;5.80;33.90
22827;DHT22;11580;52.562;13.418;2024-01-06T08:28:44;5.80;33.90
22827;DHT22;11580;52.562;13.418;2024-01-06T08:31:11;5.80;33.70
22827;DHT22;11580;52.562;13.418;2024-01-06T08:33:38;5.80;33.50
22827;DHT22;11580;52.562;13.418;2024-01-06T08:36:06;5.90;33.40
22827;DHT22;11580;52.562;13.418;2024-01-06T08:38:33;5.80;33.30
22827;DHT22;11580;52.562;13.418;2024-01-06T08:41:03;5.80;33.10
22827;DHT22;11580;52.562;13.418;2024-01-06T08:43:30;5.80;33.00
22827;DHT22;11580;52.562;13.418;2024-01-06T08:45:57;5.80;33.20
22827;DHT22;11580;52.562;13.418;2024-01-06T08:48:26;5.70;33.20
22827;DHT22;11580;52.562;13.418;2024-01-06T08:50:53;5.70;33.20
22827;DHT22;11580;52.562;13.418;2024-01-06T08:53:20;5.70;33.30
22827;DHT22;11580;52.562;13.418;2024-01-06T08:55:47;5.70;33.20
22827;DHT22;11580;52.562;13.418;2024-01-06T08:58:16;5.70;33.20
22827;DHT22;11580;52.562;13.418;2024-01-06T09:00:43;5.60;32.90
22827;DHT22;11580;52.562;13.418;2024-01-06T09:03:10;5.60;33.00
22827;DHT22;11580;52.562;13.418;2024-01-06T09:05:38;5.60;33.20
22827;DHT22;11580;52.562;13.418;2024-01-06T09:08:06;5.60;33.20
22827;DHT22;11580;52.562;13.418;2024-01-06T09:10:33;5.60;33.20
22827;DHT22;11580;52.562;13.418;2024-01-06T09:13:00;5.60;33.10
22827;DHT22;11580;52.562;13.418;2024-01-06T09:15:29;5.60;33.10
22827;DHT22;11580;52.562;13.418;2024-01-06T09:17:57;5.60;33.00
22827;DHT22;11580;52.562;13.418;2024-01-06T09:20:24;5.60;33.00
22827;DHT22;11580;52.562;13.418;2024-01-06T09:22:53;5.50;33.00
22827;DHT22;11580;52.562;13.418;2024-01-06T09:25:20;5.50;32.90
22827;DHT22;11580;52.562;13.418;2024-01-06T09:27:50;5.50;32.80
22827;DHT22;11580;52.562;13.418;2024-01-06T09:30:18;5.50;32.80
22827;DHT22;11580;52.562;13.418;2024-01-06T09:32:47;5.50;32.80
22827;DHT22;11580;52.562;13.418;2024-01-06T09:35:15;5.50;32.90
22827;DHT22;11580;52.562;13.418;2024-01-06T09:37:42;5.40;33.00
22827;DHT22;11580;52.562;13.418;2024-01-06T09:40:12;5.40;33.00
22827;DHT22;11580;52.562;13.418;2024-01-06T09:42:40;5.40;32.80
22827;DHT22;11580;52.562;13.418;2024-01-06T09:45:08;5.40;33.00
22827;DHT22;11580;52.562;13.418;2024-01-06T09:47:35;5.40;33.00
22827;DHT22;11580;52.562;13.418;2024-01-06T09:50:06;5.40;33.10
22827;DHT22;11580;52.562;13.418;2024-01-06T09:52:40;5.40;32.80
22827;DHT22;11580;52.562;13.418;2024-01-06T09:55:11;5.40;32.90
22827;DHT22;11580;52.562;13.418;2024-01-06T09:57:38;5.40;32.90
22827;DHT22;11580;52.562;13.418;2024-01-06T10:00:07;5.40;33.00
22827;DHT22;11580;52.562;13.418;2024-01-06T10:02:38;5.40;32.70
22827;DHT22;11580;52.562;13.418;2024-01-06T10:05:08;5.40;32.70
22827;DHT22;11580;52.562;13.418;2024-01-06T10:07:37;5.40;32.50
22827;DHT22;11580;52.562;13.418;2024-01-06T10:10:07;5.40;32.70
22827;DHT22;11580;52.562;13.418;2024-01-06T10:12:37;5.40;32.50
22827;DHT22;11580;52.562;13.418;2024-01-06T10:15:05;5.40;32.50
22827;DHT22;11580;52.562;13.418;2024-01-06T10:17:36;5.30;32.70
22827;DHT22;11580;52.562;13.418;2024-01-06T10:20:08;5.30;32.60
22827;DHT22;11580;52.562;13.418;2024-01-06T10:22:37;5.30;32.70
22827;DHT22;11580;52.562;13.418;2024-01-06T10:25:05;5.30;33.10
22827;DHT22;11580;52.562;13.418;2024-01-06T10:27:35;5.30;33.20
22827;DHT22;11580;52.562;13.418;2024-01-06T10:30:02;5.40;33.30
22827;DHT22;11580;52.562;13.418;2024-01-06T10:32:31;5.40;33.40
22827;DHT22;11580;52.562;13.418;2024-01-06T10:35:00;5.40;33.30
22827;DHT22;11580;52.562;13.418;2024-01-06T10:37:30;5.40;33.90
22827;DHT22;11580;52.562;13.418;2024-01-06T10:40:08;5.50;33.20
22827;DHT22;11580;52.562;13.418;2024-01-06T10:42:37;5.50;32.60
22827;DHT22;11580;52.562;13.418;2024-01-06T10:45:07;5.50;33.10
22827;DHT22;11580;52.562;13.418;2024-01-06T10:47:36;5.60;32.90
22827;DHT22;11580;52.562;13.418;2024-01-06T10:50:04;5.60;32.80
22827;DHT22;11580;52.562;13.418;2024-01-06T10:52:34;5.60;32.80
22827;DHT22;11580;52.562;13.418;2024-01-06T10:55:05;5.50;32.70
22827;DHT22;11580;52.562;13.418;2024-01-06T10:57:34;5.60;32.70
22827;DHT22;11580;52.562;13.418;2024-01-06T11:00:04;5.50;32.80
22827;DHT22;11580;52.562;13.418;2024-01-06T11:02:32;5.50;32.80
22827;DHT22;11580;52.562;13.418;2024-01-06T11:05:00;5.60;33.70
22827;DHT22;11580;52.562;13.418;2024-01-06T11:07:28;5.60;33.00
22827;DHT22;11580;52.562;13.418;2024-01-06T11:10:00;5.60;33.00
22827;DHT22;11580;52.562;13.418;2024-01-06T11:12:31;5.60;33.30
22827;DHT22;11580;52.562;13.418;2024-01-06T11:14:59;5.60;33.50
22827;DHT22;11580;52.562;13.418;2024-01-06T11:17:51;5.60;32.80
22827;DHT22;11580;52.562;13.418;2024-01-06T11:20:21;5.60;31.60
22827;DHT22;11580;52.562;13.418;2024-01-06T11:22:50;5.60;32.50
22827;DHT22;11580;52.562;13.418;2024-01-06T11:25:20;5.60;32.50
22827;DHT22;11580;52.562;13.418;2024-01-06T11:27:49;5.50;32.10
22827;DHT22;11580;52.562;13.418;2024-01-06T11:30:24;5.60;32.50
22827;DHT22;11580;52.562;13.418;2024-01-06T11:32:53;5.50;32.50
22827;DHT22;11580;52.562;13.418;2024-01-06T11:35:26;5.50;32.60
22827;DHT22;11580;52.562;13.418;2024-01-06T11:37:55;5.50;32.50
22827;DHT22;11580;52.562;13.418;2024-01-06T11:40:30;5.50;32.60
22827;DHT22;11580;52.562;13.418;2024-01-06T11:43:01;5.50;32.50
22827;DHT22;11580;52.562;13.418;2024-01-06T11:45:30;5.50;33.10
22827;DHT22;11580;52.562;13.418;2024-01-06T11:47:59;5.50;32.50
22827;DHT22;11580;52.562;13.418;2024-01-06T11:50:28;5.50;33.00
22827;DHT22;11580;52.562;13.418;2024-01-06T11:52:56;5.50;32.40
22827;DHT22;11580;52.562;13.418;2024-01-06T11:55:27;5.50;32.50
22827;DHT22;11580;52.562;13.418;2024-01-06T11:57:54;5.50;32.10
22827;DHT22;11580;52.562;13.418;2024-01-06T12:00:23;5.50;32.20
22827;DHT22;11580;52.562;13.418;2024-01-06T12:02:55;5.50;32.10
22827;DHT22;11580;52.562;13.418;2024-01-06T12:05:24;5.50;31.80
22827;DHT22;11580;52.562;13.418;2024-01-06T12:07:56;5.50;32.20
22827;DHT22;11580;52.562;13.418;2024-01-06T12:10:27;5.50;31.90
22827;DHT22;11580;52.562;13.418;2024-01-06T12:12:56;5.40;32.10
22827;DHT22;11580;52.562;13.418;2024-01-06T12:15:29;5.50;32.30
22827;DHT22;11580;52.562;13.418;2024-01-06T12:17:57;5.40;32.20
22827;DHT22;11580;52.562;13.418;2024-01-06T12:20:26;5.50;32.30
22827;DHT22;11580;52.562;13.418;2024-01-06T12:22:55;5.50;32.10
22827;DHT22;11580;52.562;13.418;2024-01-06T12:25:23;5.50;32.20
22827;DHT22;11580;52.562;13.418;2024-01-06T12:27:52;5.50;32.80
22827;DHT22;11580;52.562;13.418;2024-01-06T12:30:21;5.50;31.90
22827;DHT22;11580;52.562;13.418;2024-01-06T12:32:51;5.50;32.10
22827;DHT22;11580;52.562;13.418;2024-01-06T12:35:20;5.50;32.30
22827;DHT22;11580;52.562;13.418;2024-01-06T12:37:48;5.50;32.10
22827;DHT22;11580;52.562;13.418;2024-01-06T12:40:16;5.50;32.30
22827;DHT22;11580;52.562;13.418;2024-01-06T12:42:45;5.50;32.30
22827;DHT22;11580;52.562;13.418;2024-01-06T12:45:14;5.50;32.10
22827;DHT22;11580;52.562;13.418;2024-01-06T12:47:42;5.50;31.80
22827;DHT22;11580;52.562;13.418;2024-01-06T12:50:09;5.50;32.60
22827;DHT22;11580;52.562;13.418;2024-01-06T12:52:36;5.50;31.50
22827;DHT22;11580;52.562;13.418;2024-01-06T12:55:05;5.50;31.50
22827;DHT22;11580;52.562;13.418;2024-01-06T12:57:33;5.50;31.50
22827;DHT22;11580;52.562;13.418;2024-01-06T13:00:00;5.50;31.50
22827;DHT22;11580;52.562;13.418;2024-01-06T13:02:30;5.50;32.20
22827;DHT22;11580;52.562;13.418;2024-01-06T13:04:57;5.40;31.40
22827;DHT22;11580;52.562;13.418;2024-01-06T13:07:25;5.40;32.10
22827;DHT22;11580;52.562;13.418;2024-01-06T13:09:52;5.40;31.40
22827;DHT22;11580;52.562;13.418;2024-01-06T13:12:20;5.40;31.60
22827;DHT22;11580;52.562;13.418;2024-01-06T13:14:49;5.40;31.80
22827;DHT22;11580;52.562;13.418;2024-01-06T13:17:16;5.40;32.20
22827;DHT22;11580;52.562;13.418;2024-01-06T13:19:45;5.30;31.60
22827;DHT22;11580;52.562;13.418;2024-01-06T13:22:12;5.30;31.40
22827;DHT22;11580;52.562;13.418;2024-01-06T13:24:40;5.30;31.80
22827;DHT22;11580;52.562;13.418;2024-01-06T13:27:07;5.40;31.90
22827;DHT22;11580;52.562;13.418;2024-01-06T13:29:34;5.30;32.10
22827;DHT22;11580;52.562;13.418;2024-01-06T13:32:02;5.40;31.70
22827;DHT22;11580;52.562;13.418;2024-01-06T13:34:31;5.40;31.60
22827;DHT22;11580;52.562;13.418;2024-01-06T13:36:59;5.30;32.40
22827;DHT22;11580;52.562;13.418;2024-01-06T13:39:27;5.40;31.80
22827;DHT22;11580;52.562;13.418;2024-01-06T13:41:54;5.40;31.90
22827;DHT22;11580;52.562;13.418;2024-01-06T13:44:21;5.40;31.90
22827;DHT22;11580;52.562;13.418;2024-01-06T13:46:49;5.40;31.70
22827;DHT22;11580;52.562;13.418;2024-01-06T13:49:17;5.40;31.70
22827;DHT22;11580;52.562;13.418;2024-01-06T13:51:44;5.40;31.50
22827;DHT22;11580;52.562;13.418;2024-01-06T13:54:13;5.30;32.10
22827;DHT22;11580;52.562;13.418;2024-01-06T13:56:41;5.30;31.30
22827;DHT22;11580;52.562;13.418;2024-01-06T13:59:08;5.30;31.30
22827;DHT22;11580;52.562;13.418;2024-01-06T14:01:35;5.30;31.30
22827;DHT22;11580;52.562;13.418;2024-01-06T14:04:03;5.30;31.30
22827;DHT22;11580;52.562;13.418;2024-01-06T14:06:31;5.20;31.90
22827;DHT22;11580;52.562;13.418;2024-01-06T14:08:59;5.20;31.20
22827;DHT22;11580;52.562;13.418;2024-01-06T14:11:28;5.20;31.20
22827;DHT22;11580;52.562;13.418;2024-01-06T14:13:57;5.20;31.20
22827;DHT22;11580;52.562;13.418;2024-01-06T14:16:24;5.10;31.20
22827;DHT22;11580;52.562;13.418;2024-01-06T14:18:52;5.10;31.30
22827;DHT22;11580;52.562;13.418;2024-01-06T14:21:19;5.10;32.20
22827;DHT22;11580;52.562;13.418;2024-01-06T14:23:46;5.10;31.50
22827;DHT22;11580;52.562;13.418;2024-01-06T14:26:15;5.10;31.50
22827;DHT22;11580;52.562;13.418;2024-01-06T14:28:44;5.10;31.40
22827;DHT22;11580;52.562;13.418;2024-01-06T14:31:11;5.10;31.20
22827;DHT22;11580;52.562;13.418;2024-01-06T14:33:39;5.10;31.20
22827;DHT22;11580;52.562;13.418;2024-01-06T14:36:07;5.10;31.20
22827;DHT22;11580;52.562;13.418;2024-01-06T14:38:34;5.10;31.20
22827;DHT22;11580;52.562;13.418;2024-01-06T14:41:02;5.10;31.20
22827;DHT22;11580;52.562;13.418;2024-01-06T14:43:29;5.10;31.20
22827;DHT22;11580;52.562;13.418;2024-01-06T14:45:57;5.10;31.20
22827;DHT22;11580;52.562;13.418;2024-01-06T14:48:25;5.10;31.20
22827;DHT22;11580;52.562;13.418;2024-01-06T14:50:52;5.10;31.20
22827;DHT22;11580;52.562;13.418;2024-01-06T14:53:19;5.10;31.20
22827;DHT22;11580;52.562;13.418;2024-01-06T14:55:46;5.10;31.20
22827;DHT22;11580;52.562;13.418;2024-01-06T14:58:13;5.00;31.10
22827;DHT22;11580;52.562;13.418;2024-01-06T15:00:40;5.00;31.10
22827;DHT22;11580;52.562;13.418;2024-01-06T15:03:09;5.00;31.10
22827;DHT22;11580;52.562;13.418;2024-01-06T15:05:36;5.00;31.10
22827;DHT22;11580;52.562;13.418;2024-01-06T15:08:04;5.00;31.10
22827;DHT22;11580;52.562;13.418;2024-01-06T15:10:32;5.00;31.10
22827;DHT22;11580;52.562;13.418;2024-01-06T15:12:59;5.00;31.10
22827;DHT22;11580;52.562;13.418;2024-01-06T15:15:26;5.00;31.20
22827;DHT22;11580;52.562;13.418;2024-01-06T15:17:53;5.00;31.80
22827;DHT22;11580;52.562;13.418;2024-01-06T15:20:22;5.10;31.20
22827;DHT22;11580;52.562;13.418;2024-01-06T15:22:49;5.10;31.20
22827;DHT22;11580;52.562;13.418;2024-01-06T15:25:17;4.80;31.00
22827;DHT22;11580;52.562;13.418;2024-01-06T15:27:45;5.10;31.20
22827;DHT22;11580;52.562;13.418;2024-01-06T15:30:13;5.10;31.20
22827;DHT22;11580;52.562;13.418;2024-01-06T15:32:42;5.10;31.20
22827;DHT22;11580;52.562;13.418;2024-01-06T15:35:09;5.10;31.20